sensor_id;sensor_type;location;lat;lon;timestamp;P1;durP1;ratioP1;P2;durP2;ratioP2
43042;SDS011;28667;50.758;6.096;2022-10-04T00:04:23;3.65;;;1.48;;
43042;SDS011;28667;50.758;6.096;2022-10-04T00:06:53;2.50;;;1.30;;
43042;SDS011;28667;50.758;6.096;2022-10-04T00:12:16;4.53;;;1.38;;
43042;SDS011;28667;50.758;6.096;2022-10-04T00:14:46;1.95;;;1.48;;
43042;SDS011;28667;50.758;6.096;2022-10-04T00:17:20;2.60;;;1.38;;
43042;SDS011;28667;50.758;6.096;2022-10-04T00:19:50;5.78;;;1.67;;
43042;SDS011;28667;50.758;6.096;2022-10-04T00:22:18;4.03;;;1.33;;
43042;SDS011;28667;50.758;6.096;2022-10-04T00:27:37;1.67;;;1.38;;
43042;SDS011;28667;50.758;6.096;2022-10-04T00:35:44;4.22;;;1.60;;
43042;SDS011;28667;50.758;6.096;2022-10-04T00:37:56;2.47;;;1.75;;
43042;SDS011;28667;50.758;6.096;2022-10-04T00:40:39;3.97;;;1.40;;
43042;SDS011;28667;50.758;6.096;2022-10-04T00:45:59;5.05;;;1.70;;
43042;SDS011;28667;50.758;6.096;2022-10-04T01:01:34;1.67;;;1.55;;
43042;SDS011;28667;50.758;6.096;2022-10-04T01:04:02;1.63;;;1.10;;
43042;SDS011;28667;50.758;6.096;2022-10-04T01:06:36;2.55;;;1.55;;
43042;SDS011;28667;50.758;6.096;2022-10-04T01:09:07;1.58;;;1.33;;
43042;SDS011;28667;50.758;6.096;2022-10-04T01:11:42;3.80;;;1.10;;
43042;SDS011;28667;50.758;6.096;2022-10-04T01:14:19;1.50;;;1.33;;
43042;SDS011;28667;50.758;6.096;2022-10-04T01:16:55;1.65;;;1.55;;
43042;SDS011;28667;50.758;6.096;2022-10-04T01:24:36;1.45;;;1.10;;
43042;SDS011;28667;50.758;6.096;2022-10-04T01:27:06;2.40;;;1.50;;
43042;SDS011;28667;50.758;6.096;2022-10-04T01:30:08;6.85;;;1.60;;
43042;SDS011;28667;50.758;6.096;2022-10-04T01:32:39;3.25;;;1.48;;
43042;SDS011;28667;50.758;6.096;2022-10-04T01:35:06;1.77;;;1.52;;
43042;SDS011;28667;50.758;6.096;2022-10-04T01:37:33;6.00;;;1.50;;
43042;SDS011;28667;50.758;6.096;2022-10-04T01:39:59;1.63;;;1.40;;
43042;SDS011;28667;50.758;6.096;2022-10-04T01:42:28;5.75;;;1.40;;
43042;SDS011;28667;50.758;6.096;2022-10-04T01:45:01;1.98;;;1.63;;
43042;SDS011;28667;50.758;6.096;2022-10-04T01:50:19;2.80;;;1.27;;
43042;SDS011;28667;50.758;6.096;2022-10-04T01:52:58;2.28;;;1.40;;
43042;SDS011;28667;50.758;6.096;2022-10-04T01:55:35;2.10;;;1.33;;
43042;SDS011;28667;50.758;6.096;2022-10-04T01:58:09;3.60;;;1.60;;
43042;SDS011;28667;50.758;6.096;2022-10-04T02:00:44;1.95;;;1.80;;
43042;SDS011;28667;50.758;6.096;2022-10-04T02:03:36;1.58;;;1.30;;
43042;SDS011;28667;50.758;6.096;2022-10-04T02:06:20;1.92;;;1.50;;
43042;SDS011;28667;50.758;6.096;2022-10-04T02:08:49;3.53;;;1.85;;
43042;SDS011;28667;50.758;6.096;2022-10-04T02:11:22;2.80;;;1.58;;
43042;SDS011;28667;50.758;6.096;2022-10-04T02:13:52;3.08;;;1.65;;
43042;SDS011;28667;50.758;6.096;2022-10-04T02:16:20;1.58;;;1.27;;
43042;SDS011;28667;50.758;6.096;2022-10-04T02:18:49;5.72;;;2.08;;
43042;SDS011;28667;50.758;6.096;2022-10-04T02:21:16;2.28;;;1.58;;
43042;SDS011;28667;50.758;6.096;2022-10-04T02:23:43;2.85;;;1.65;;
43042;SDS011;28667;50.758;6.096;2022-10-04T02:26:11;4.78;;;1.40;;
43042;SDS011;28667;50.758;6.096;2022-10-04T02:28:38;2.80;;;1.42;;
43042;SDS011;28667;50.758;6.096;2022-10-04T02:31:05;3.47;;;1.23;;
43042;SDS011;28667;50.758;6.096;2022-10-04T02:33:51;2.53;;;1.27;;
43042;SDS011;28667;50.758;6.096;2022-10-04T02:36:27;2.35;;;1.50;;
43042;SDS011;28667;50.758;6.096;2022-10-04T02:47:08;4.20;;;1.65;;
43042;SDS011;28667;50.758;6.096;2022-10-04T02:49:44;5.55;;;2.10;;
43042;SDS011;28667;50.758;6.096;2022-10-04T02:55:05;2.58;;;1.63;;
43042;SDS011;28667;50.758;6.096;2022-10-04T02:57:39;1.90;;;1.27;;
43042;SDS011;28667;50.758;6.096;2022-10-04T03:05:41;2.92;;;1.75;;
43042;SDS011;28667;50.758;6.096;2022-10-04T03:08:25;3.22;;;1.50;;
43042;SDS011;28667;50.758;6.096;2022-10-04T03:10:53;3.42;;;1.60;;
43042;SDS011;28667;50.758;6.096;2022-10-04T03:13:21;2.15;;;1.40;;
43042;SDS011;28667;50.758;6.096;2022-10-04T03:15:47;2.50;;;1.60;;
43042;SDS011;28667;50.758;6.096;2022-10-04T03:18:14;3.22;;;1.80;;
43042;SDS011;28667;50.758;6.096;2022-10-04T03:20:42;1.85;;;1.50;;
43042;SDS011;28667;50.758;6.096;2022-10-04T03:23:09;5.38;;;1.42;;
43042;SDS011;28667;50.758;6.096;2022-10-04T03:26:12;3.05;;;1.85;;
43042;SDS011;28667;50.758;6.096;2022-10-04T03:28:59;2.80;;;1.92;;
43042;SDS011;28667;50.758;6.096;2022-10-04T03:31:26;3.08;;;1.55;;
43042;SDS011;28667;50.758;6.096;2022-10-04T03:33:54;4.50;;;1.52;;
43042;SDS011;28667;50.758;6.096;2022-10-04T03:36:22;3.00;;;1.55;;
43042;SDS011;28667;50.758;6.096;2022-10-04T03:38:51;1.77;;;1.30;;
43042;SDS011;28667;50.758;6.096;2022-10-04T03:41:19;2.75;;;1.63;;
43042;SDS011;28667;50.758;6.096;2022-10-04T03:43:47;1.80;;;1.50;;
43042;SDS011;28667;50.758;6.096;2022-10-04T03:46:15;2.83;;;1.65;;
43042;SDS011;28667;50.758;6.096;2022-10-04T03:48:44;6.15;;;2.33;;
43042;SDS011;28667;50.758;6.096;2022-10-04T03:51:18;1.55;;;1.42;;
43042;SDS011;28667;50.758;6.096;2022-10-04T03:53:50;6.13;;;1.90;;
43042;SDS011;28667;50.758;6.096;2022-10-04T03:56:20;6.03;;;1.55;;
43042;SDS011;28667;50.758;6.096;2022-10-04T03:58:48;3.25;;;1.80;;
43042;SDS011;28667;50.758;6.096;2022-10-04T04:01:25;6.80;;;2.17;;
43042;SDS011;28667;50.758;6.096;2022-10-04T04:04:17;4.13;;;2.33;;
43042;SDS011;28667;50.758;6.096;2022-10-04T04:06:52;2.10;;;1.80;;
43042;SDS011;28667;50.758;6.096;2022-10-04T04:15:27;2.63;;;1.83;;
43042;SDS011;28667;50.758;6.096;2022-10-04T04:17:55;2.38;;;1.92;;
43042;SDS011;28667;50.758;6.096;2022-10-04T04:20:33;3.70;;;1.95;;
43042;SDS011;28667;50.758;6.096;2022-10-04T04:23:03;3.85;;;1.73;;
43042;SDS011;28667;50.758;6.096;2022-10-04T04:25:36;3.03;;;1.63;;
43042;SDS011;28667;50.758;6.096;2022-10-04T04:30:57;4.43;;;2.22;;
43042;SDS011;28667;50.758;6.096;2022-10-04T04:33:32;3.03;;;1.98;;
43042;SDS011;28667;50.758;6.096;2022-10-04T04:36:09;5.55;;;2.40;;
43042;SDS011;28667;50.758;6.096;2022-10-04T04:38:38;3.80;;;1.75;;
43042;SDS011;28667;50.758;6.096;2022-10-04T04:41:25;4.63;;;2.25;;
43042;SDS011;28667;50.758;6.096;2022-10-04T04:43:53;3.08;;;2.17;;
43042;SDS011;28667;50.758;6.096;2022-10-04T04:46:19;2.80;;;1.75;;
43042;SDS011;28667;50.758;6.096;2022-10-04T04:48:47;6.28;;;2.50;;
43042;SDS011;28667;50.758;6.096;2022-10-04T04:51:18;2.85;;;2.17;;
43042;SDS011;28667;50.758;6.096;2022-10-04T04:53:48;3.83;;;2.10;;
43042;SDS011;28667;50.758;6.096;2022-10-04T04:56:17;2.60;;;1.92;;
43042;SDS011;28667;50.758;6.096;2022-10-04T04:58:51;6.13;;;2.13;;
43042;SDS011;28667;50.758;6.096;2022-10-04T05:06:30;6.18;;;2.20;;
43042;SDS011;28667;50.758;6.096;2022-10-04T05:08:57;3.38;;;1.85;;
43042;SDS011;28667;50.758;6.096;2022-10-04T05:11:25;3.92;;;2.25;;
43042;SDS011;28667;50.758;6.096;2022-10-04T05:16:26;3.45;;;2.25;;
43042;SDS011;28667;50.758;6.096;2022-10-04T05:19:06;3.55;;;1.92;;
43042;SDS011;28667;50.758;6.096;2022-10-04T05:21:40;4.60;;;2.35;;
43042;SDS011;28667;50.758;6.096;2022-10-04T05:24:10;6.40;;;2.70;;
43042;SDS011;28667;50.758;6.096;2022-10-04T05:26:39;4.57;;;2.40;;
43042;SDS011;28667;50.758;6.096;2022-10-04T05:29:08;2.78;;;2.22;;
43042;SDS011;28667;50.758;6.096;2022-10-04T05:31:45;3.63;;;2.50;;
43042;SDS011;28667;50.758;6.096;2022-10-04T05:34:21;3.30;;;1.90;;
43042;SDS011;28667;50.758;6.096;2022-10-04T05:36:55;3.58;;;2.20;;
43042;SDS011;28667;50.758;6.096;2022-10-04T05:42:36;3.08;;;1.83;;
43042;SDS011;28667;50.758;6.096;2022-10-04T05:45:28;4.33;;;1.90;;
43042;SDS011;28667;50.758;6.096;2022-10-04T05:47:56;5.32;;;2.25;;
43042;SDS011;28667;50.758;6.096;2022-10-04T05:59:29;3.83;;;2.53;;
43042;SDS011;28667;50.758;6.096;2022-10-04T06:23:48;7.43;;;2.42;;
43042;SDS011;28667;50.758;6.096;2022-10-04T06:26:21;6.22;;;2.22;;
43042;SDS011;28667;50.758;6.096;2022-10-04T06:28:51;6.47;;;2.58;;
43042;SDS011;28667;50.758;6.096;2022-10-04T06:31:43;2.93;;;2.30;;
43042;SDS011;28667;50.758;6.096;2022-10-04T06:37:33;7.68;;;2.15;;
43042;SDS011;28667;50.758;6.096;2022-10-04T06:40:08;4.00;;;1.95;;
43042;SDS011;28667;50.758;6.096;2022-10-04T06:43:08;3.67;;;2.00;;
43042;SDS011;28667;50.758;6.096;2022-10-04T07:02:18;2.28;;;1.60;;
43042;SDS011;28667;50.758;6.096;2022-10-04T07:04:57;2.92;;;2.10;;
43042;SDS011;28667;50.758;6.096;2022-10-04T07:07:48;2.50;;;2.10;;
43042;SDS011;28667;50.758;6.096;2022-10-04T07:11:06;2.40;;;1.80;;
43042;SDS011;28667;50.758;6.096;2022-10-04T07:16:00;5.05;;;2.38;;
43042;SDS011;28667;50.758;6.096;2022-10-04T07:21:01;6.50;;;1.80;;
43042;SDS011;28667;50.758;6.096;2022-10-04T07:23:35;4.93;;;1.88;;
43042;SDS011;28667;50.758;6.096;2022-10-04T07:28:59;2.70;;;2.13;;
43042;SDS011;28667;50.758;6.096;2022-10-04T07:34:31;1.90;;;1.70;;
43042;SDS011;28667;50.758;6.096;2022-10-04T07:37:12;1.85;;;1.52;;
43042;SDS011;28667;50.758;6.096;2022-10-04T07:44:59;1.88;;;1.63;;
43042;SDS011;28667;50.758;6.096;2022-10-04T07:47:30;5.85;;;1.77;;
43042;SDS011;28667;50.758;6.096;2022-10-04T07:49:57;4.35;;;2.28;;
43042;SDS011;28667;50.758;6.096;2022-10-04T08:00:16;2.67;;;1.85;;
43042;SDS011;28667;50.758;6.096;2022-10-04T08:05:36;2.85;;;1.90;;
43042;SDS011;28667;50.758;6.096;2022-10-04T08:11:14;6.43;;;2.63;;
43042;SDS011;28667;50.758;6.096;2022-10-04T08:41:53;2.03;;;1.33;;
43042;SDS011;28667;50.758;6.096;2022-10-04T08:55:46;2.03;;;1.70;;
43042;SDS011;28667;50.758;6.096;2022-10-04T09:02:16;4.63;;;2.25;;
43042;SDS011;28667;50.758;6.096;2022-10-04T09:13:05;1.48;;;1.10;;
43042;SDS011;28667;50.758;6.096;2022-10-04T09:20:46;2.10;;;1.20;;
43042;SDS011;28667;50.758;6.096;2022-10-04T09:47:31;2.25;;;1.48;;
43042;SDS011;28667;50.758;6.096;2022-10-04T10:16:27;1.73;;;1.20;;
43042;SDS011;28667;50.758;6.096;2022-10-04T10:24:45;2.55;;;1.35;;
43042;SDS011;28667;50.758;6.096;2022-10-04T10:27:26;1.58;;;1.38;;
43042;SDS011;28667;50.758;6.096;2022-10-04T10:30:24;3.20;;;1.55;;
43042;SDS011;28667;50.758;6.096;2022-10-04T10:38:40;1.90;;;1.23;;
43042;SDS011;28667;50.758;6.096;2022-10-04T11:19:22;1.10;;;1.00;;
43042;SDS011;28667;50.758;6.096;2022-10-04T11:28:04;2.47;;;0.93;;
43042;SDS011;28667;50.758;6.096;2022-10-04T11:46:52;1.27;;;0.95;;
43042;SDS011;28667;50.758;6.096;2022-10-04T11:54:54;1.88;;;0.98;;
43042;SDS011;28667;50.758;6.096;2022-10-04T11:57:50;0.70;;;0.70;;
43042;SDS011;28667;50.758;6.096;2022-10-04T12:00:23;3.30;;;1.10;;
43042;SDS011;28667;50.758;6.096;2022-10-04T12:34:53;1.70;;;1.00;;
43042;SDS011;28667;50.758;6.096;2022-10-04T12:40:00;1.65;;;0.98;;
43042;SDS011;28667;50.758;6.096;2022-10-04T12:53:10;1.52;;;1.10;;
43042;SDS011;28667;50.758;6.096;2022-10-04T12:59:33;1.95;;;0.90;;
43042;SDS011;28667;50.758;6.096;2022-10-04T13:01:49;3.90;;;1.10;;
43042;SDS011;28667;50.758;6.096;2022-10-04T13:04:45;2.10;;;1.13;;
43042;SDS011;28667;50.758;6.096;2022-10-04T13:07:33;1.50;;;0.90;;
43042;SDS011;28667;50.758;6.096;2022-10-04T13:19:16;1.02;;;0.98;;
43042;SDS011;28667;50.758;6.096;2022-10-04T13:24:47;3.65;;;1.10;;
43042;SDS011;28667;50.758;6.096;2022-10-04T13:30:25;1.52;;;1.23;;
43042;SDS011;28667;50.758;6.096;2022-10-04T13:35:40;2.35;;;1.30;;
43042;SDS011;28667;50.758;6.096;2022-10-04T13:55:18;2.65;;;0.98;;
43042;SDS011;28667;50.758;6.096;2022-10-04T13:58:13;2.80;;;1.20;;
43042;SDS011;28667;50.758;6.096;2022-10-04T14:06:36;1.70;;;1.20;;
43042;SDS011;28667;50.758;6.096;2022-10-04T14:12:20;2.55;;;1.58;;
43042;SDS011;28667;50.758;6.096;2022-10-04T14:20:57;2.28;;;1.17;;
43042;SDS011;28667;50.758;6.096;2022-10-04T14:24:07;3.30;;;0.90;;
43042;SDS011;28667;50.758;6.096;2022-10-04T14:35:32;1.55;;;0.82;;
43042;SDS011;28667;50.758;6.096;2022-10-04T14:40:43;3.90;;;1.13;;
43042;SDS011;28667;50.758;6.096;2022-10-04T14:43:44;1.80;;;0.90;;
43042;SDS011;28667;50.758;6.096;2022-10-04T14:46:56;2.92;;;1.25;;
43042;SDS011;28667;50.758;6.096;2022-10-04T15:00:16;1.35;;;1.13;;
43042;SDS011;28667;50.758;6.096;2022-10-04T15:11:10;2.70;;;1.20;;
43042;SDS011;28667;50.758;6.096;2022-10-04T15:13:52;4.35;;;3.13;;
43042;SDS011;28667;50.758;6.096;2022-10-04T15:16:32;7.20;;;1.88;;
43042;SDS011;28667;50.758;6.096;2022-10-04T15:27:14;5.63;;;1.40;;
43042;SDS011;28667;50.758;6.096;2022-10-04T15:32:26;0.80;;;0.80;;
43042;SDS011;28667;50.758;6.096;2022-10-04T15:38:13;1.50;;;1.40;;
43042;SDS011;28667;50.758;6.096;2022-10-04T15:40:52;1.58;;;1.35;;
43042;SDS011;28667;50.758;6.096;2022-10-04T15:43:22;3.83;;;1.38;;
43042;SDS011;28667;50.758;6.096;2022-10-04T15:57:22;1.20;;;1.10;;
43042;SDS011;28667;50.758;6.096;2022-10-04T16:20:02;4.50;;;1.20;;
43042;SDS011;28667;50.758;6.096;2022-10-04T16:25:48;1.83;;;1.30;;
43042;SDS011;28667;50.758;6.096;2022-10-04T16:31:18;2.17;;;1.42;;
43042;SDS011;28667;50.758;6.096;2022-10-04T16:39:47;3.35;;;1.17;;
43042;SDS011;28667;50.758;6.096;2022-10-04T16:42:37;1.25;;;1.10;;
43042;SDS011;28667;50.758;6.096;2022-10-04T16:47:37;1.23;;;1.00;;
43042;SDS011;28667;50.758;6.096;2022-10-04T16:50:42;1.30;;;1.10;;
43042;SDS011;28667;50.758;6.096;2022-10-04T16:55:56;2.40;;;1.53;;
43042;SDS011;28667;50.758;6.096;2022-10-04T16:58:40;3.92;;;1.38;;
43042;SDS011;28667;50.758;6.096;2022-10-04T17:03:49;2.42;;;1.83;;
43042;SDS011;28667;50.758;6.096;2022-10-04T17:06:24;2.92;;;1.70;;
43042;SDS011;28667;50.758;6.096;2022-10-04T17:14:18;1.90;;;1.40;;
43042;SDS011;28667;50.758;6.096;2022-10-04T17:16:56;3.10;;;1.80;;
43042;SDS011;28667;50.758;6.096;2022-10-04T17:19:47;3.78;;;1.80;;
43042;SDS011;28667;50.758;6.096;2022-10-04T17:27:52;4.38;;;3.67;;
43042;SDS011;28667;50.758;6.096;2022-10-04T17:30:26;7.47;;;4.32;;
43042;SDS011;28667;50.758;6.096;2022-10-04T17:44:35;4.07;;;2.03;;
43042;SDS011;28667;50.758;6.096;2022-10-04T17:50:37;5.65;;;1.63;;
43042;SDS011;28667;50.758;6.096;2022-10-04T17:53:27;3.25;;;1.88;;
43042;SDS011;28667;50.758;6.096;2022-10-04T17:56:21;3.15;;;2.25;;
43042;SDS011;28667;50.758;6.096;2022-10-04T17:59:18;2.33;;;2.08;;
43042;SDS011;28667;50.758;6.096;2022-10-04T18:01:52;5.22;;;2.22;;
43042;SDS011;28667;50.758;6.096;2022-10-04T18:04:28;2.53;;;1.92;;
43042;SDS011;28667;50.758;6.096;2022-10-04T18:07:20;4.47;;;2.10;;
43042;SDS011;28667;50.758;6.096;2022-10-04T18:09:51;4.47;;;1.88;;
43042;SDS011;28667;50.758;6.096;2022-10-04T18:12:28;4.30;;;2.03;;
43042;SDS011;28667;50.758;6.096;2022-10-04T18:17:33;4.95;;;2.25;;
43042;SDS011;28667;50.758;6.096;2022-10-04T18:20:33;3.97;;;2.45;;
43042;SDS011;28667;50.758;6.096;2022-10-04T18:23:22;2.60;;;2.20;;
43042;SDS011;28667;50.758;6.096;2022-10-04T18:26:00;4.93;;;2.58;;
43042;SDS011;28667;50.758;6.096;2022-10-04T18:28:31;4.82;;;2.25;;
43042;SDS011;28667;50.758;6.096;2022-10-04T18:31:04;4.10;;;2.10;;
43042;SDS011;28667;50.758;6.096;2022-10-04T18:33:53;3.30;;;2.40;;
43042;SDS011;28667;50.758;6.096;2022-10-04T18:39:45;3.00;;;2.22;;
43042;SDS011;28667;50.758;6.096;2022-10-04T18:44:56;3.78;;;1.92;;
43042;SDS011;28667;50.758;6.096;2022-10-04T18:47:43;2.85;;;1.95;;
43042;SDS011;28667;50.758;6.096;2022-10-04T18:50:14;3.70;;;2.10;;
43042;SDS011;28667;50.758;6.096;2022-10-04T19:01:48;5.05;;;2.40;;
43042;SDS011;28667;50.758;6.096;2022-10-04T19:04:39;2.80;;;2.40;;
43042;SDS011;28667;50.758;6.096;2022-10-04T19:07:11;3.33;;;2.05;;
43042;SDS011;28667;50.758;6.096;2022-10-04T19:26:49;4.38;;;2.90;;
43042;SDS011;28667;50.758;6.096;2022-10-04T19:30:01;5.95;;;2.97;;
43042;SDS011;28667;50.758;6.096;2022-10-04T19:32:58;2.58;;;2.00;;
43042;SDS011;28667;50.758;6.096;2022-10-04T19:38:43;3.33;;;2.40;;
43042;SDS011;28667;50.758;6.096;2022-10-04T19:41:37;3.45;;;2.10;;
43042;SDS011;28667;50.758;6.096;2022-10-04T19:49:49;2.50;;;1.92;;
43042;SDS011;28667;50.758;6.096;2022-10-04T19:54:56;5.07;;;2.03;;
43042;SDS011;28667;50.758;6.096;2022-10-04T19:57:37;5.43;;;2.60;;
43042;SDS011;28667;50.758;6.096;2022-10-04T20:00:12;3.55;;;2.15;;
43042;SDS011;28667;50.758;6.096;2022-10-04T20:02:41;2.58;;;1.88;;
43042;SDS011;28667;50.758;6.096;2022-10-04T20:05:15;3.08;;;1.95;;
43042;SDS011;28667;50.758;6.096;2022-10-04T20:07:56;3.22;;;1.70;;
43042;SDS011;28667;50.758;6.096;2022-10-04T20:10:35;2.80;;;1.95;;
43042;SDS011;28667;50.758;6.096;2022-10-04T20:26:02;2.75;;;2.00;;
43042;SDS011;28667;50.758;6.096;2022-10-04T20:33:49;3.47;;;2.35;;
43042;SDS011;28667;50.758;6.096;2022-10-04T20:46:24;7.90;;;2.50;;
43042;SDS011;28667;50.758;6.096;2022-10-04T20:48:52;2.95;;;1.77;;
43042;SDS011;28667;50.758;6.096;2022-10-04T20:51:19;2.45;;;2.00;;
43042;SDS011;28667;50.758;6.096;2022-10-04T20:53:47;3.80;;;2.13;;
43042;SDS011;28667;50.758;6.096;2022-10-04T20:58:49;3.83;;;2.17;;
43042;SDS011;28667;50.758;6.096;2022-10-04T21:01:20;3.78;;;2.50;;
43042;SDS011;28667;50.758;6.096;2022-10-04T21:06:59;2.78;;;1.80;;
43042;SDS011;28667;50.758;6.096;2022-10-04T21:09:34;5.65;;;2.53;;
43042;SDS011;28667;50.758;6.096;2022-10-04T21:12:02;5.22;;;2.13;;
43042;SDS011;28667;50.758;6.096;2022-10-04T21:14:30;8.32;;;2.45;;
43042;SDS011;28667;50.758;6.096;2022-10-04T21:17:01;2.55;;;2.35;;
43042;SDS011;28667;50.758;6.096;2022-10-04T21:19:47;3.70;;;1.98;;
43042;SDS011;28667;50.758;6.096;2022-10-04T21:29:56;7.40;;;2.25;;
43042;SDS011;28667;50.758;6.096;2022-10-04T21:32:23;3.67;;;2.67;;
43042;SDS011;28667;50.758;6.096;2022-10-04T21:34:50;5.00;;;2.53;;
43042;SDS011;28667;50.758;6.096;2022-10-04T21:37:17;3.50;;;2.38;;
43042;SDS011;28667;50.758;6.096;2022-10-04T21:39:43;3.60;;;2.45;;
43042;SDS011;28667;50.758;6.096;2022-10-04T21:42:10;3.53;;;2.58;;
43042;SDS011;28667;50.758;6.096;2022-10-04T21:44:36;4.43;;;2.22;;
43042;SDS011;28667;50.758;6.096;2022-10-04T21:47:02;5.13;;;2.40;;
43042;SDS011;28667;50.758;6.096;2022-10-04T21:49:28;3.65;;;2.63;;
43042;SDS011;28667;50.758;6.096;2022-10-04T21:51:54;4.22;;;2.42;;
43042;SDS011;28667;50.758;6.096;2022-10-04T21:54:20;4.82;;;2.35;;
43042;SDS011;28667;50.758;6.096;2022-10-04T21:56:46;8.10;;;2.92;;
43042;SDS011;28667;50.758;6.096;2022-10-04T21:59:12;3.88;;;2.78;;
43042;SDS011;28667;50.758;6.096;2022-10-04T22:01:38;5.13;;;3.17;;
43042;SDS011;28667;50.758;6.096;2022-10-04T22:04:04;7.05;;;2.42;;
43042;SDS011;28667;50.758;6.096;2022-10-04T22:06:30;2.95;;;2.40;;
43042;SDS011;28667;50.758;6.096;2022-10-04T22:08:57;4.40;;;2.75;;
43042;SDS011;28667;50.758;6.096;2022-10-04T22:11:23;3.10;;;2.72;;
43042;SDS011;28667;50.758;6.096;2022-10-04T22:13:49;5.65;;;2.63;;
43042;SDS011;28667;50.758;6.096;2022-10-04T22:16:15;6.05;;;3.22;;
43042;SDS011;28667;50.758;6.096;2022-10-04T22:18:41;8.55;;;2.90;;
43042;SDS011;28667;50.758;6.096;2022-10-04T22:21:07;6.40;;;3.70;;
43042;SDS011;28667;50.758;6.096;2022-10-04T22:23:37;9.90;;;3.35;;
43042;SDS011;28667;50.758;6.096;2022-10-04T22:26:08;5.22;;;2.88;;
43042;SDS011;28667;50.758;6.096;2022-10-04T22:28:36;4.40;;;2.42;;
43042;SDS011;28667;50.758;6.096;2022-10-04T22:31:13;3.70;;;2.72;;
43042;SDS011;28667;50.758;6.096;2022-10-04T22:33:45;5.90;;;3.13;;
43042;SDS011;28667;50.758;6.096;2022-10-04T22:41:34;3.72;;;2.90;;
43042;SDS011;28667;50.758;6.096;2022-10-04T22:44:21;7.20;;;3.28;;
43042;SDS011;28667;50.758;6.096;2022-10-04T22:46:50;3.40;;;2.92;;
43042;SDS011;28667;50.758;6.096;2022-10-04T22:49:19;5.90;;;3.30;;
43042;SDS011;28667;50.758;6.096;2022-10-04T22:51:48;6.53;;;3.30;;
43042;SDS011;28667;50.758;6.096;2022-10-04T22:54:16;5.38;;;3.05;;
43042;SDS011;28667;50.758;6.096;2022-10-04T22:56:50;4.25;;;3.20;;
43042;SDS011;28667;50.758;6.096;2022-10-04T22:59:19;4.45;;;2.50;;
43042;SDS011;28667;50.758;6.096;2022-10-04T23:01:47;4.65;;;3.03;;
43042;SDS011;28667;50.758;6.096;2022-10-04T23:04:20;6.75;;;2.90;;
43042;SDS011;28667;50.758;6.096;2022-10-04T23:06:48;6.35;;;2.53;;
43042;SDS011;28667;50.758;6.096;2022-10-04T23:09:15;2.97;;;2.35;;
43042;SDS011;28667;50.758;6.096;2022-10-04T23:11:42;6.03;;;2.90;;
43042;SDS011;28667;50.758;6.096;2022-10-04T23:14:09;4.45;;;2.70;;
43042;SDS011;28667;50.758;6.096;2022-10-04T23:16:35;4.85;;;3.15;;
43042;SDS011;28667;50.758;6.096;2022-10-04T23:21:36;4.68;;;3.20;;
43042;SDS011;28667;50.758;6.096;2022-10-04T23:24:12;3.70;;;3.20;;
43042;SDS011;28667;50.758;6.096;2022-10-04T23:26:42;5.05;;;3.38;;
43042;SDS011;28667;50.758;6.096;2022-10-04T23:29:54;6.25;;;3.05;;
43042;SDS011;28667;50.758;6.096;2022-10-04T23:32:00;3.08;;;2.70;;
43042;SDS011;28667;50.758;6.096;2022-10-04T23:34:34;5.63;;;3.10;;
43042;SDS011;28667;50.758;6.096;2022-10-04T23:37:02;3.33;;;3.00;;
43042;SDS011;28667;50.758;6.096;2022-10-04T23:39:38;4.45;;;2.90;;
43042;SDS011;28667;50.758;6.096;2022-10-04T23:42:09;4.43;;;2.53;;
43042;SDS011;28667;50.758;6.096;2022-10-04T23:44:48;6.30;;;3.22;;
43042;SDS011;28667;50.758;6.096;2022-10-04T23:47:16;4.53;;;2.80;;
43042;SDS011;28667;50.758;6.096;2022-10-04T23:49:48;5.20;;;3.38;;
43042;SDS011;28667;50.758;6.096;2022-10-04T23:52:18;6.07;;;3.10;;
43042;SDS011;28667;50.758;6.096;2022-10-04T23:54:49;3.47;;;2.72;;
43042;SDS011;28667;50.758;6.096;2022-10-04T23:57:21;5.65;;;3.10;;
43042;SDS011;28667;50.758;6.096;2022-10-04T23:59:50;4.57;;;3.17;;
